createdAt,value
2018-05-03T00:00:47.682Z,11.40
2018-05-03T00:03:19.531Z,11.00
2018-05-03T00:05:50.887Z,13.00
2018-05-03T00:08:23.298Z,13.20
2018-05-03T00:10:55.081Z,11.67
2018-05-03T00:13:27.415Z,10.40
2018-05-03T00:15:59.559Z,9.67
2018-05-03T00:18:32.095Z,12.50
2018-05-03T00:21:03.432Z,9.67
2018-05-03T00:23:34.772Z,11.00
2018-05-03T00:26:06.614Z,8.67
2018-05-03T00:31:03.118Z,14.00
2018-05-03T00:33:34.442Z,12.33
2018-05-03T00:36:06.530Z,11.33
2018-05-03T00:38:37.373Z,14.33
2018-05-03T00:41:09.658Z,18.00
2018-05-03T00:43:41.315Z,14.33
2018-05-03T00:46:12.790Z,18.00
2018-05-03T00:48:44.140Z,15.00
2018-05-03T00:51:16.036Z,15.33
2018-05-03T00:53:47.536Z,11.67
2018-05-03T00:56:19.914Z,16.00
2018-05-03T00:58:51.320Z,15.67
2018-05-03T01:01:22.707Z,14.33
2018-05-03T01:03:55.015Z,14.33
2018-05-03T01:06:26.387Z,16.33
2018-05-03T01:08:58.687Z,13.67
2018-05-03T01:11:30.083Z,13.00
2018-05-03T01:14:01.434Z,12.33
2018-05-03T01:16:32.725Z,13.00
2018-05-03T01:19:05.157Z,9.67
2018-05-03T01:21:36.550Z,14.33
2018-05-03T01:24:07.097Z,17.00
2018-05-03T01:26:38.778Z,11.00
2018-05-03T01:29:21.697Z,13.33
2018-05-03T01:38:50.325Z,17.00
2018-05-03T01:43:46.387Z,13.00
2018-05-03T01:46:17.732Z,16.67
2018-05-03T01:48:49.131Z,13.00
2018-05-03T01:51:25.820Z,14.60
2018-05-03T01:53:58.003Z,15.00
2018-05-03T01:56:29.376Z,15.00
2018-05-03T01:59:01.003Z,14.67
2018-05-03T02:01:32.414Z,18.00
2018-05-03T02:04:02.878Z,20.00
2018-05-03T02:06:35.102Z,18.67
2018-05-03T02:09:08.454Z,16.67
2018-05-03T02:11:41.124Z,16.00
2018-05-03T02:14:12.386Z,15.33
2018-05-03T02:16:43.658Z,11.67
2018-05-03T02:19:15.337Z,16.33
2018-05-03T02:21:46.591Z,15.00
2018-05-03T02:24:19.721Z,16.00
2018-05-03T02:26:52.756Z,16.67
2018-05-03T02:29:26.007Z,11.67
2018-05-03T02:31:57.428Z,15.00
2018-05-03T02:34:28.849Z,14.33
2018-05-03T02:37:02.020Z,18.00
2018-05-03T02:39:34.741Z,16.33
2018-05-03T02:42:07.173Z,15.33
2018-05-03T02:44:38.501Z,17.33
2018-05-03T02:47:08.956Z,13.67
2018-05-03T02:49:41.485Z,21.00
2018-05-03T02:52:12.814Z,15.00
2018-05-03T02:54:43.365Z,18.00
2018-05-03T02:59:28.664Z,18.00
2018-05-03T03:04:07.947Z,13.00
2018-05-03T03:06:54.050Z,17.00
2018-05-03T03:11:39.842Z,14.67
2018-05-03T03:16:31.534Z,22.00
2018-05-03T03:20:20.997Z,19.00
2018-05-03T03:25:09.024Z,12.00
2018-05-03T03:27:54.608Z,17.67
2018-05-03T03:32:39.440Z,17.00
2018-05-03T03:35:11.473Z,15.00
2018-05-03T03:37:53.611Z,18.33
2018-05-03T03:42:35.826Z,17.00
2018-05-03T03:45:13.082Z,16.00
2018-05-03T03:47:46.361Z,18.33
2018-05-03T03:50:17.677Z,15.67
2018-05-03T03:52:51.180Z,15.00
2018-05-03T03:55:26.065Z,20.67
2018-05-03T03:57:58.350Z,20.67
2018-05-03T04:00:28.816Z,15.00
2018-05-03T04:02:59.650Z,21.67
2018-05-03T04:05:31.938Z,17.67
2018-05-03T04:08:02.485Z,20.67
2018-05-03T04:10:33.939Z,17.67
2018-05-03T04:13:04.320Z,23.00
2018-05-03T04:15:34.814Z,20.00
2018-05-03T04:20:22.151Z,16.00
2018-05-03T04:23:01.186Z,17.00
2018-05-03T04:25:43.320Z,16.33
2018-05-03T04:28:14.470Z,16.00
2018-05-03T04:30:45.801Z,16.67
2018-05-03T04:33:17.045Z,13.67
2018-05-03T04:35:49.336Z,16.00
2018-05-03T04:38:21.518Z,16.00
2018-05-03T04:40:52.762Z,16.33
2018-05-03T04:46:03.850Z,14.00
2018-05-03T04:48:34.378Z,16.00
2018-05-03T04:51:06.550Z,18.67
2018-05-03T04:53:37.250Z,16.33
2018-05-03T04:56:07.795Z,19.00
2018-05-03T04:58:38.275Z,20.33
2018-05-03T05:01:08.833Z,18.67
2018-05-03T05:03:40.256Z,13.67
2018-05-03T05:06:11.711Z,26.00
2018-05-03T05:08:42.149Z,22.67
2018-05-03T05:11:12.597Z,21.67
2018-05-03T05:13:43.480Z,19.00
2018-05-03T05:16:14.124Z,17.67
2018-05-03T05:18:44.843Z,14.67
2018-05-03T05:21:16.569Z,27.00
2018-05-03T05:23:47.079Z,22.33
2018-05-03T05:26:18.175Z,25.67
2018-05-03T05:28:48.684Z,27.67
2018-05-03T05:42:40.750Z,26.67
2018-05-03T05:45:13.066Z,24.00
2018-05-03T05:47:43.550Z,25.33
2018-05-03T05:50:14.276Z,24.00
2018-05-03T05:52:44.667Z,29.00
2018-05-03T05:55:15.125Z,28.33
2018-05-03T05:57:46.086Z,24.00
2018-05-03T06:00:16.805Z,28.33
2018-05-03T06:02:47.494Z,24.67
2018-05-03T06:05:18.316Z,26.33
2018-05-03T06:07:49.018Z,20.67
2018-05-03T06:10:19.581Z,22.67
2018-05-03T06:12:51.027Z,22.33
2018-05-03T06:15:21.667Z,25.00
2018-05-03T06:17:52.096Z,25.67
2018-05-03T06:20:22.916Z,24.67
2018-05-03T06:22:53.226Z,28.00
2018-05-03T06:25:23.892Z,27.67
2018-05-03T06:27:55.707Z,26.00
2018-05-03T06:30:26.271Z,25.67
2018-05-03T06:32:56.848Z,28.00
2018-05-03T06:35:27.602Z,29.00
2018-05-03T06:37:58.094Z,25.67
2018-05-03T06:40:28.560Z,25.67
2018-05-03T06:42:59.150Z,25.67
2018-05-03T06:45:29.579Z,24.00
2018-05-03T06:48:00.042Z,18.33
2018-05-03T06:50:33.224Z,18.33
2018-05-03T06:53:05.674Z,12.00
2018-05-03T06:55:37.978Z,15.67
2018-05-03T06:58:09.250Z,14.00
2018-05-03T07:00:42.099Z,11.67
2018-05-03T07:03:13.395Z,14.00
2018-05-03T07:05:44.779Z,14.00
2018-05-03T07:08:16.249Z,16.00
2018-05-03T07:10:48.485Z,16.00
2018-05-03T07:13:20.036Z,20.67
2018-05-03T07:15:51.401Z,15.67
2018-05-03T07:18:22.744Z,15.33
2018-05-03T07:21:00.381Z,19.00
2018-05-03T07:23:31.680Z,15.67
2018-05-03T07:26:02.957Z,13.33
2018-05-03T07:28:34.541Z,14.33
2018-05-03T07:31:06.755Z,13.00
2018-05-03T07:33:39.090Z,13.67
2018-05-03T07:36:11.318Z,11.75
2018-05-03T07:38:43.055Z,13.67
2018-05-03T07:41:15.268Z,10.80
2018-05-03T07:43:46.925Z,16.00
2018-05-03T07:46:18.523Z,13.00
2018-05-03T07:48:50.684Z,15.75
2018-05-03T07:51:22.922Z,16.75
2018-05-03T07:53:54.252Z,19.00
2018-05-03T07:56:26.448Z,16.00
2018-05-03T07:59:00.453Z,14.00
2018-05-03T08:01:31.817Z,14.67
2018-05-03T08:04:03.246Z,17.33
2018-05-03T08:06:34.593Z,15.67
2018-05-03T08:09:07.660Z,16.33
2018-05-03T08:11:39.003Z,17.00
2018-05-03T08:14:11.010Z,12.33
2018-05-03T08:16:42.806Z,17.67
2018-05-03T08:19:17.115Z,17.00
2018-05-03T08:21:48.510Z,19.00
2018-05-03T08:24:19.819Z,14.67
2018-05-03T08:26:51.558Z,15.00
2018-05-03T08:29:22.854Z,16.33
2018-05-03T08:31:55.107Z,17.00
2018-05-03T08:34:27.653Z,16.00
2018-05-03T08:37:00.750Z,16.33
2018-05-03T08:39:34.809Z,17.67
2018-05-03T08:42:05.649Z,19.67
2018-05-03T08:44:38.195Z,20.00
2018-05-03T08:47:09.717Z,19.33
2018-05-03T08:49:44.016Z,18.00
2018-05-03T08:52:17.669Z,19.67
2018-05-03T08:54:49.357Z,19.33
2018-05-03T08:57:20.962Z,17.00
2018-05-03T08:59:52.320Z,21.00
2018-05-03T09:02:24.602Z,21.33
2018-05-03T09:04:55.964Z,18.00
2018-05-03T09:07:28.815Z,16.67
2018-05-03T09:10:00.083Z,20.00
2018-05-03T09:12:32.128Z,20.67
2018-05-03T09:15:05.542Z,17.33
2018-05-03T09:17:38.200Z,16.33
2018-05-03T09:20:13.802Z,16.67
2018-05-03T09:22:45.626Z,15.67
2018-05-03T09:25:16.965Z,14.67
2018-05-03T09:27:48.023Z,14.00
2018-05-03T09:30:20.104Z,15.00
2018-05-03T09:32:54.628Z,20.00
2018-05-03T09:35:26.483Z,15.33
2018-05-03T09:37:59.382Z,15.00
2018-05-03T09:40:31.771Z,19.67
2018-05-03T09:43:03.148Z,17.67
2018-05-03T09:45:33.602Z,20.67
2018-05-03T09:48:04.166Z,15.33
2018-05-03T09:50:36.425Z,17.00
2018-05-03T09:53:06.943Z,16.33
2018-05-03T09:55:54.653Z,17.67
2018-05-03T09:58:30.056Z,17.33
2018-05-03T10:01:02.359Z,20.00
2018-05-03T10:03:33.349Z,18.33
2018-05-03T10:06:04.633Z,20.33
2018-05-03T10:08:37.149Z,18.00
2018-05-03T10:11:09.909Z,16.67
2018-05-03T10:13:43.375Z,20.00
2018-05-03T10:16:15.989Z,17.00
2018-05-03T10:18:47.478Z,18.00
2018-05-03T10:21:20.704Z,17.00
2018-05-03T10:23:53.389Z,20.00
2018-05-03T10:26:26.840Z,19.67
2018-05-03T10:28:58.328Z,25.67
2018-05-03T10:31:29.716Z,18.00
2018-05-03T10:34:02.032Z,22.33
2018-05-03T10:36:34.294Z,18.33
2018-05-03T10:39:06.493Z,18.00
2018-05-03T10:41:38.785Z,17.33
2018-05-03T10:44:11.144Z,17.67
2018-05-03T10:46:42.600Z,22.33
2018-05-03T10:49:16.165Z,16.00
2018-05-03T10:51:48.712Z,16.33
2018-05-03T10:54:20.005Z,16.33
2018-05-03T10:56:52.368Z,17.00
2018-05-03T10:59:25.481Z,16.67
2018-05-03T11:01:56.761Z,18.67
2018-05-03T11:04:28.116Z,19.00
2018-05-03T11:06:59.521Z,15.00
2018-05-03T11:09:32.265Z,15.25
2018-05-03T11:12:03.747Z,11.00
2018-05-03T11:14:35.073Z,15.00
2018-05-03T11:17:07.352Z,19.67
2018-05-03T11:19:38.739Z,16.00
2018-05-03T11:22:09.204Z,19.33
2018-05-03T11:24:40.553Z,16.33
2018-05-03T11:27:11.959Z,18.33
2018-05-03T11:29:43.350Z,19.00
2018-05-03T11:32:14.814Z,18.00
2018-05-03T11:34:47.145Z,18.67
2018-05-03T11:37:17.860Z,20.33
2018-05-03T11:39:51.309Z,19.67
2018-05-03T11:42:23.220Z,14.00
2018-05-03T11:44:55.642Z,21.00
2018-05-03T11:47:42.030Z,16.00
2018-05-03T11:50:13.563Z,15.33
2018-05-03T11:52:44.185Z,20.33
2018-05-03T11:55:14.733Z,22.67
2018-05-03T11:57:46.219Z,18.00
2018-05-03T12:00:18.590Z,19.00
2018-05-03T12:02:50.874Z,21.67
2018-05-03T12:05:23.473Z,18.33
2018-05-03T12:07:54.829Z,17.00
2018-05-03T12:10:26.719Z,16.67
2018-05-03T12:12:58.069Z,14.67
2018-05-03T12:15:30.065Z,15.33
2018-05-03T12:18:01.833Z,13.33
2018-05-03T12:20:32.973Z,15.00
2018-05-03T12:23:05.495Z,12.75
2018-05-03T12:25:36.743Z,11.00
2018-05-03T12:28:08.792Z,12.00
2018-05-03T12:30:40.355Z,12.00
2018-05-03T12:33:11.715Z,12.33
2018-05-03T12:35:43.886Z,14.75
2018-05-03T12:38:15.615Z,10.00
2018-05-03T12:40:47.036Z,11.67
2018-05-03T12:43:18.346Z,13.67
2018-05-03T12:45:53.980Z,13.00
2018-05-03T12:48:26.169Z,11.75
2018-05-03T12:50:58.922Z,11.50
2018-05-03T12:53:30.549Z,15.00
2018-05-03T12:56:01.996Z,13.67
2018-05-03T12:58:35.657Z,17.33
2018-05-03T13:01:07.044Z,11.33
2018-05-03T13:03:38.909Z,15.67
2018-05-03T13:06:11.800Z,16.00
2018-05-03T13:08:43.858Z,14.33
2018-05-03T13:11:15.182Z,13.67
2018-05-03T13:13:46.906Z,12.00
2018-05-03T13:18:59.259Z,17.33
2018-05-03T13:21:30.630Z,13.67
2018-05-03T13:24:03.048Z,13.25
2018-05-03T13:26:34.680Z,14.00
2018-05-03T13:29:05.998Z,12.00
2018-05-03T13:31:38.358Z,14.67
2018-05-03T13:34:09.996Z,14.00
2018-05-03T13:36:41.371Z,15.33
2018-05-03T13:39:12.665Z,12.00
2018-05-03T13:41:44.811Z,13.67
2018-05-03T13:44:17.749Z,14.67
2018-05-03T13:46:52.894Z,11.33
2018-05-03T13:49:25.194Z,13.67
2018-05-03T13:51:56.637Z,16.67
2018-05-03T13:54:28.868Z,17.33
2018-05-03T13:56:59.718Z,21.00
2018-05-03T13:59:31.335Z,15.00
2018-05-03T14:02:02.916Z,17.00
2018-05-03T14:04:34.227Z,15.33
2018-05-03T14:07:05.921Z,18.00
2018-05-03T14:09:37.395Z,14.67
2018-05-03T14:12:08.803Z,17.33
2018-05-03T14:14:41.021Z,17.00
2018-05-03T14:17:13.348Z,17.67
2018-05-03T14:19:46.075Z,13.00
2018-05-03T14:22:17.475Z,16.00
2018-05-03T14:24:49.083Z,14.33
2018-05-03T14:27:21.974Z,15.00
2018-05-03T14:29:53.315Z,15.67
2018-05-03T14:32:24.839Z,13.67
2018-05-03T14:34:57.489Z,13.00
2018-05-03T14:37:28.872Z,15.33
2018-05-03T14:40:01.645Z,16.67
2018-05-03T14:42:33.047Z,13.00
2018-05-03T14:45:06.696Z,14.33
2018-05-03T14:47:38.693Z,16.33
2018-05-03T14:50:10.448Z,12.00
2018-05-03T14:52:42.807Z,13.33
2018-05-03T14:55:14.293Z,13.33
2018-05-03T14:57:45.797Z,13.33
2018-05-03T15:00:17.943Z,13.00
2018-05-03T15:02:49.326Z,12.67
2018-05-03T15:05:20.767Z,16.00
2018-05-03T15:07:54.209Z,12.00
2018-05-03T15:10:25.618Z,12.67
2018-05-03T15:12:57.027Z,14.00
2018-05-03T15:15:28.493Z,15.00
2018-05-03T15:18:00.762Z,15.33
2018-05-03T15:20:32.548Z,14.33
2018-05-03T15:23:04.103Z,16.67
2018-05-03T15:25:35.433Z,16.33
2018-05-03T15:28:06.898Z,14.33
2018-05-03T15:30:38.408Z,14.00
2018-05-03T15:33:11.310Z,15.33
2018-05-03T15:35:43.580Z,15.00
2018-05-03T15:38:14.935Z,15.00
2018-05-03T15:40:49.543Z,16.00
2018-05-03T15:43:21.017Z,14.67
2018-05-03T15:45:52.457Z,12.33
2018-05-03T15:48:23.789Z,15.33
2018-05-03T15:50:55.176Z,16.00
2018-05-03T15:53:26.893Z,15.00
2018-05-03T15:55:58.246Z,14.67
2018-05-03T15:58:29.897Z,14.33
2018-05-03T16:01:01.254Z,13.00
2018-05-03T16:03:32.541Z,13.00
2018-05-03T16:06:05.424Z,17.00
2018-05-03T16:08:37.670Z,14.33
2018-05-03T16:11:09.134Z,16.33
2018-05-03T16:13:40.819Z,15.00
2018-05-03T16:16:12.241Z,16.33
2018-05-03T16:18:43.556Z,11.00
2018-05-03T16:21:14.903Z,17.00
2018-05-03T16:23:46.225Z,14.33
2018-05-03T16:26:17.955Z,13.33
2018-05-03T16:28:49.064Z,15.33
2018-05-03T16:31:20.438Z,13.00
2018-05-03T16:33:52.063Z,13.00
2018-05-03T16:36:24.327Z,11.60
2018-05-03T16:38:56.797Z,15.00
2018-05-03T16:41:28.175Z,15.67
2018-05-03T16:44:00.547Z,17.67
2018-05-03T16:46:32.012Z,15.33
2018-05-03T16:49:04.187Z,12.75
2018-05-03T16:51:36.061Z,15.67
2018-05-03T16:54:07.432Z,15.00
2018-05-03T16:56:38.974Z,16.00
2018-05-03T16:59:10.389Z,15.00
2018-05-03T17:01:41.747Z,12.00
2018-05-03T17:04:19.804Z,13.00
2018-05-03T17:06:51.293Z,14.67
2018-05-03T17:09:23.017Z,14.67
2018-05-03T17:11:56.892Z,11.33
2018-05-03T17:14:28.317Z,15.00
2018-05-03T17:17:00.879Z,14.00
2018-05-03T17:19:33.579Z,16.00
2018-05-03T17:22:04.743Z,14.00
2018-05-03T17:24:36.098Z,12.33
2018-05-03T17:27:08.152Z,14.33
2018-05-03T17:29:41.442Z,15.00
2018-05-03T17:32:12.792Z,14.00
2018-05-03T17:34:44.156Z,13.33
2018-05-03T17:37:16.554Z,16.00
2018-05-03T17:39:48.350Z,14.33
2018-05-03T17:42:19.818Z,16.00
2018-05-03T17:44:51.192Z,13.33
2018-05-03T17:47:22.849Z,14.67
2018-05-03T17:49:53.376Z,15.00
2018-05-03T17:52:25.727Z,14.00
2018-05-03T17:54:58.038Z,16.00
2018-05-03T17:57:29.499Z,17.00
2018-05-03T18:00:04.124Z,16.33
2018-05-03T18:02:36.327Z,15.67
2018-05-03T18:05:08.804Z,17.33
2018-05-03T18:07:39.384Z,18.67
2018-05-03T18:10:09.920Z,19.33
2018-05-03T18:12:41.662Z,14.00
2018-05-03T18:15:16.658Z,20.00
2018-05-03T18:17:47.422Z,17.00
2018-05-03T18:20:18.046Z,17.00
2018-05-03T18:22:48.775Z,18.67
2018-05-03T18:25:20.761Z,19.67
2018-05-03T18:27:51.343Z,15.67
2018-05-03T18:30:21.831Z,17.00
2018-05-03T18:32:54.208Z,17.33
2018-05-03T18:35:24.722Z,20.00
2018-05-03T18:37:56.130Z,14.67
2018-05-03T18:40:28.768Z,20.00
2018-05-03T18:42:59.307Z,16.33
2018-05-03T18:45:31.725Z,19.00
2018-05-03T18:48:03.122Z,19.00
2018-05-03T18:50:34.500Z,16.00
2018-05-03T18:53:05.974Z,17.33
2018-05-03T18:55:36.423Z,20.67
2018-05-03T18:58:07.873Z,16.33
2018-05-03T19:00:39.314Z,16.00
2018-05-03T19:03:10.727Z,15.67
2018-05-03T19:05:41.689Z,14.33
2018-05-03T19:08:12.161Z,18.00
2018-05-03T19:10:44.992Z,21.00
2018-05-03T19:13:16.862Z,17.00
2018-05-03T19:15:48.439Z,18.67
2018-05-03T19:18:20.754Z,15.00
2018-05-03T19:20:52.096Z,15.00
2018-05-03T19:23:24.451Z,14.50
2018-05-03T19:25:56.223Z,15.00
2018-05-03T19:28:27.581Z,10.33
2018-05-03T19:30:59.058Z,12.00
2018-05-03T19:33:31.643Z,11.40
2018-05-03T19:36:03.018Z,12.00
2018-05-03T19:38:35.555Z,11.00
2018-05-03T19:41:07.062Z,10.33
2018-05-03T19:43:39.348Z,11.60
2018-05-03T19:46:12.993Z,12.00
2018-05-03T19:48:45.297Z,13.00
2018-05-03T19:51:17.862Z,12.00
2018-05-03T19:53:49.175Z,10.67
2018-05-03T19:56:21.485Z,15.75
2018-05-03T19:58:54.237Z,11.67
2018-05-03T20:01:25.746Z,10.33
2018-05-03T20:03:57.171Z,11.00
2018-05-03T20:06:29.033Z,11.33
2018-05-03T20:09:00.443Z,9.00
2018-05-03T20:11:32.100Z,11.00
2018-05-03T20:14:03.533Z,9.00
2018-05-03T20:16:35.740Z,9.00
2018-05-03T20:19:07.511Z,9.00
2018-05-03T20:21:39.726Z,11.00
2018-05-03T20:24:12.264Z,10.60
2018-05-03T20:26:44.790Z,8.80
2018-05-03T20:29:16.252Z,12.33
2018-05-03T20:31:48.820Z,11.00
2018-05-03T20:34:21.156Z,10.20
2018-05-03T20:36:52.954Z,11.67
2018-05-03T20:39:26.613Z,8.40
2018-05-03T20:41:58.000Z,9.00
2018-05-03T20:44:29.416Z,9.00
2018-05-03T20:47:00.917Z,9.00
2018-05-03T20:49:32.407Z,11.67
2018-05-03T20:52:04.448Z,9.00
2018-05-03T20:54:36.926Z,9.20
2018-05-03T20:57:08.474Z,9.67
2018-05-03T20:59:42.368Z,8.43
2018-05-03T21:02:14.536Z,9.00
2018-05-03T21:04:48.273Z,8.33
2018-05-03T21:07:19.850Z,11.67
2018-05-03T21:09:52.190Z,8.40
2018-05-03T21:12:25.778Z,9.40
2018-05-03T21:14:57.250Z,10.33
2018-05-03T21:17:29.584Z,11.00
2018-05-03T21:20:01.329Z,8.33
2018-05-03T21:22:34.476Z,9.00
2018-05-03T21:25:06.796Z,12.00
2018-05-03T21:27:39.135Z,10.20
2018-05-03T21:30:12.255Z,11.00
2018-05-03T21:32:44.003Z,11.00
2018-05-03T21:35:15.424Z,10.33
2018-05-03T21:37:46.697Z,10.33
2018-05-03T21:40:18.683Z,13.00
2018-05-03T21:42:51.562Z,9.60
2018-05-03T21:45:25.926Z,11.00
2018-05-03T21:47:57.226Z,12.33
2018-05-03T21:50:31.497Z,11.71
2018-05-03T21:53:03.670Z,8.60
2018-05-03T21:55:35.056Z,10.00
2018-05-03T21:58:06.335Z,9.33
2018-05-03T22:00:37.768Z,14.00
2018-05-03T22:03:08.724Z,11.00
2018-05-03T22:05:40.142Z,11.00
2018-05-03T22:08:11.727Z,10.33
2018-05-03T22:10:43.983Z,10.00
2018-05-03T22:13:15.726Z,11.67
2018-05-03T22:15:47.862Z,8.00
2018-05-03T22:18:19.434Z,11.00
2018-05-03T22:20:53.136Z,11.00
2018-05-03T22:23:25.357Z,9.40
2018-05-03T22:25:57.977Z,10.60
2018-05-03T22:28:29.581Z,11.00
2018-05-03T22:31:01.809Z,9.40
2018-05-03T22:33:34.296Z,11.40
2018-05-03T22:36:06.653Z,10.60
2018-05-03T22:38:39.325Z,11.00
2018-05-03T22:41:11.538Z,10.40
2018-05-03T22:43:45.548Z,11.86
2018-05-03T22:46:16.826Z,11.00
2018-05-03T22:48:48.502Z,11.67
2018-05-03T22:51:20.502Z,11.00
2018-05-03T22:53:52.752Z,10.00
2018-05-03T22:56:24.985Z,11.00
2018-05-03T22:58:57.532Z,12.00
2018-05-03T23:01:29.195Z,13.00
2018-05-03T23:04:01.425Z,11.00
2018-05-03T23:06:36.763Z,11.00
2018-05-03T23:09:09.038Z,10.20
2018-05-03T23:11:41.269Z,13.20
2018-05-03T23:14:13.050Z,11.33
2018-05-03T23:16:44.393Z,8.67
2018-05-03T23:19:15.962Z,10.00
2018-05-03T23:21:47.332Z,10.67
2018-05-03T23:24:19.530Z,10.00
2018-05-03T23:26:54.780Z,8.29
2018-05-03T23:29:26.176Z,10.00
2018-05-03T23:31:58.490Z,10.00
2018-05-03T23:34:31.411Z,10.00
2018-05-03T23:37:04.338Z,9.60
2018-05-03T23:39:35.892Z,13.00
2018-05-03T23:42:08.101Z,10.25
2018-05-03T23:44:39.544Z,12.33
2018-05-03T23:47:11.262Z,10.00
2018-05-03T23:49:43.507Z,12.00
2018-05-03T23:52:15.906Z,10.00
2018-05-03T23:54:47.307Z,10.00
2018-05-03T23:57:19.544Z,11.20
2018-05-03T23:59:51.845Z,10.20
